Huvudsida
METAR-TAF:

METAR-TAF

Flygplatser :

Abadan International Airport

Abadan, Iran

latitud: 30-22N, longitud: 048-15E, höjd: 3 m

Aktuellt väderrapport

Denna rapport gjordes för 37 minuter sedan, klockan 21:00 UTC
Vind 17 kt från nordväst
Temperatur 37°C
Fuktighet 17%
Tryck 1000 hPa
Sikt 10 km eller mer
Inga moln under 1 500 m eller inga cumulonimbus

METAR: OIAA 182100Z 32017KT CAVOK 37/08 Q1000

Tid: 02:07 (21:37 UTC)

Väderprognos

Denna rapport gjordes för 4 timmar och 7 minuter sedan, klockan 17:30 UTC
Prognos gäller från 18 kl. 18 UTC till 19 kl. 24 UTC
Vind 16 kt från väst/nordväst
Sikt: 6000 m
Temporärt
från 19 kl. 04 UTC till 19 kl. 15 UTC
Vind 16 kt från nordväst i byarna ända upp till 26 kt
Sikt: 5000 m
sand
Sannolikhet 40% :
Temporärt
från 19 kl. 07 UTC till 19 kl. 12 UTC
Vind 36 kt från nordväst
Sikt: 2500 m
sand

TAF: OIAA 181730Z 1818/1924 30016KT 6000 NSC TEMPO 1904/1915 31016G26KT 5000 SA PROB40 TEMPO 1907/1912 32036KT 2500 SA

Aktuella väderrapporter och prognoser från 4000 flygplatser (METAR- och TAF-rapporter).

De tillgängliga stationerna syns som gula och röda prickar på kartan.

För musen över prickarna för att se namnen på stationerna.

Klicka sedan för att få väderrapporter och prognoser.

För att ändra kartan: Klicka på de gröna knapparna med ett svart kors på för att zooma in; den gröna knappen med ett streck på för att zooma ut; eller på de gröna pilarna för angränsande kartor.


METAR-TAF: